WetterOnline ( https://www.wetteronline.de )

Wetter aktuell Darß/Zingst

Aktuelles Wetter: Barth (7m)

6-stündlich | Neueste Meldungen
Ortszeit Temperatur Wetter
Di, 07.07. 8:00 14.6° C bewölkt
Di, 07.07. 2:00 13.7° C bewölkt
Mo, 06.07. 20:00 16.1° C wolkig
Mo, 06.07. 14:00 18.1° C wolkig
Mo, 06.07. 8:00 15.3° C wolkig
Mo, 06.07. 2:00 13.7° C wolkig
So, 05.07. 20:00 19.1° C bewölkt
So, 05.07. 14:00 18.8° C Sprühregen
Ortszeit Temperatur Wetter
Di, 07.07. 9:00 14.5° C bewölkt
Di, 07.07. 8:50 14.5° C bewölkt
Di, 07.07. 8:40 14.1° C bewölkt
Di, 07.07. 8:30 14.1° C bewölkt
Di, 07.07. 8:20 14.1° C bewölkt
Di, 07.07. 8:10 14.1° C bewölkt
Di, 07.07. 8:00 14.6° C bewölkt
Di, 07.07. 7:30 14.0° C bewölkt
Di, 07.07. 7:00 13.3° C bedeckt
Di, 07.07. 6:30 13.0° C bedeckt
Di, 07.07. 6:00 12.7° C bewölkt
Ortszeit Relative Feuchte Sichtweite
Di, 07.07. 8:00 62% 40 km
Di, 07.07. 2:00 68% 45 km
Mo, 06.07. 20:00 70% 45 km
Mo, 06.07. 14:00 60% 30 km
Mo, 06.07. 8:00 73% 50 km
Mo, 06.07. 2:00 79% 40 km
So, 05.07. 20:00 71% 50 km
So, 05.07. 14:00 90% 16 km
Ortszeit Relative Feuchte Sichtweite
Di, 07.07. 9:00 65% 45 km
Di, 07.07. 8:50 65% -
Di, 07.07. 8:40 64% -
Di, 07.07. 8:30 65% -
Di, 07.07. 8:20 65% -
Di, 07.07. 8:10 64% -
Di, 07.07. 8:00 62% 40 km
Di, 07.07. 7:30 63% 40 km
Di, 07.07. 7:00 66% 40 km
Di, 07.07. 6:30 64% 40 km
Di, 07.07. 6:00 65% 50 km
Ortszeit Niederschlagsmenge Niederschlagsart
Di, 07.07. 8:00 0.1 l/m2 in 12 Std. Regen
Di, 07.07. 2:00 0.1 l/m2 in 6 Std. Regen
Mo, 06.07. 20:00 0.3 l/m2 in 12 Std. Regen, Niederschlag
Mo, 06.07. 14:00 0.1 l/m2 in 6 Std. Regen
Mo, 06.07. 8:00 0.1 l/m2 in 12 Std. Regen
Mo, 06.07. 2:00 0.0 l/m2 in 6 Std. -
So, 05.07. 20:00 0.6 l/m2 in 12 Std. Regen
So, 05.07. 14:00 0.5 l/m2 in 6 Std. Regen
Ortszeit Niederschlagsmenge Niederschlagsart
Di, 07.07. 9:00 0.0 l/m2 in 1 Std. -
Di, 07.07. 8:50 keine Meldung -
Di, 07.07. 8:40 keine Meldung -
Di, 07.07. 8:30 0.0 l/m2 in 1 Std. -
Di, 07.07. 8:20 keine Meldung -
Di, 07.07. 8:10 keine Meldung -
Di, 07.07. 8:00 0.0 l/m2 in 1 Std. Regen
Di, 07.07. 7:30 0.0 l/m2 in 1 Std. -
Di, 07.07. 7:00 0.0 l/m2 in 1 Std. -
Di, 07.07. 6:30 0.0 l/m2 in 1 Std. -
Di, 07.07. 6:00 0.0 l/m2 in 1 Std. -
Ortszeit Stärke Spitze Richtung
km/h Bft. km/h Grad Sektor
Di, 07.07. 8:00 22 4 54 290° W
Di, 07.07. 2:00 29 5 65 280° W
Mo, 06.07. 20:00 31 5 63 260° W
Mo, 06.07. 14:00 36 5 65 250° W
Mo, 06.07. 8:00 20 4 33 220° SW
Mo, 06.07. 2:00 13 3 46 240° SW
So, 05.07. 20:00 22 4 58 260° W
So, 05.07. 14:00 28 4 52 230° SW
Ortszeit Stärke Spitze Richtung
km/h Bft. km/h Grad Sektor
Di, 07.07. 9:00 19 3 41 290° W
Di, 07.07. 8:50 19 3 - 290° W
Di, 07.07. 8:40 22 4 - 300° NW
Di, 07.07. 8:30 20 4 39 290° W
Di, 07.07. 8:20 20 4 - 290° W
Di, 07.07. 8:10 25 4 - 280° W
Di, 07.07. 8:00 22 4 36 290° W
Di, 07.07. 7:30 18 3 32 280° W
Di, 07.07. 7:00 20 4 35 290° W
Di, 07.07. 6:30 18 3 36 300° NW
Di, 07.07. 6:00 18 3 54 290° W
Ortszeit Untergrenze Bedeckung Gattung
total tief tief mittel hoch
Di, 07.07. 8:00 1170 m 7/8 7/8 - - -
Di, 07.07. 2:00 930 m 7/8 7/8 - - -
Mo, 06.07. 20:00 840 m 7/8 4/8 - - -
Mo, 06.07. 14:00 960 m 6/8 5/8 - - -
Mo, 06.07. 8:00 3000 m 6/8 6/8 - - -
Mo, 06.07. 2:00 1800 m 6/8 6/8 - - -
So, 05.07. 20:00 1170 m 7/8 7/8 - - -
So, 05.07. 14:00 510 m 7/8 7/8 - - -
Ortszeit Bedeckungsgrad in Achtel und Wolkenuntergrenze
Di, 07.07. 9:00 1(930m) 7(1260m) 7(1500m)
Di, 07.07. 8:50 1(930m) 7(1260m) 7(1500m)
Di, 07.07. 8:40 1(900m) 6(1260m) 7(1500m)
Di, 07.07. 8:30 6(1230m) 7(1440m)
Di, 07.07. 8:20 6(1230m) 7(1440m)
Di, 07.07. 8:10 5(1230m) 7(1440m)
Di, 07.07. 8:00 4(1170m) 7(1440m) 7(1800m)
Di, 07.07. 7:30 7(1380m) 7(1410m)
Di, 07.07. 7:00 3(990m) 8(1290m)
Di, 07.07. 6:30 1(1110m) 8(1350m)
Di, 07.07. 6:00 7(1350m) 7(1500m)
Ortszeit Luftdruck NN (hPa) Tendenz (hPa in 3 Std.)
Di, 07.07. 8:00 1016 + 1,5
Di, 07.07. 2:00 1013 + 1,6
Mo, 06.07. 20:00 1010 + 1,7
Mo, 06.07. 14:00 1007 + 1,0
Mo, 06.07. 8:00 1005 + 0,2
Mo, 06.07. 2:00 1006 - 0,1
So, 05.07. 20:00 1005 + 0,5
So, 05.07. 14:00 1005 + 0,3
Ortszeit Luftdruck NN (hPa) Tendenz (hPa in 3 Std.)
Di, 07.07. 9:00 1016 + 1,3
Di, 07.07. 8:50 1016 keine Meldung
Di, 07.07. 8:40 1016 keine Meldung
Di, 07.07. 8:30 1016 + 1,5
Di, 07.07. 8:20 1016 keine Meldung
Di, 07.07. 8:10 1016 keine Meldung
Di, 07.07. 8:00 1016 + 1,5
Di, 07.07. 7:30 1016 + 1,8
Di, 07.07. 7:00 1016 + 1,6
Di, 07.07. 6:30 1015 + 1,3
Di, 07.07. 6:00 1015 + 1,3
Ortszeit Schneehöhe (cm)
Di, 07.07. 8:00 -
Di, 07.07. 2:00 -
Mo, 06.07. 20:00 -
Mo, 06.07. 14:00 -
Mo, 06.07. 8:00 -
Mo, 06.07. 2:00 -
So, 05.07. 20:00 -
So, 05.07. 14:00 -
Ortszeit Schneehöhe (cm)
Di, 07.07. 9:00 -
Di, 07.07. 8:50 -
Di, 07.07. 8:40 -
Di, 07.07. 8:30 -
Di, 07.07. 8:20 -
Di, 07.07. 8:10 -
Di, 07.07. 8:00 -
Di, 07.07. 7:30 -
Di, 07.07. 7:00 -
Di, 07.07. 6:30 -
Di, 07.07. 6:00 -
Link zu dieser Seite / Seite empfehlen

Das Wetter in ...